createdAt,value
2018-05-15T00:00:26.892Z,20.17
2018-05-15T00:01:00.395Z,16.07
2018-05-15T00:01:33.880Z,21.40
2018-05-15T00:02:07.353Z,24.30
2018-05-15T00:02:40.836Z,26.60
2018-05-15T00:03:14.340Z,27.10
2018-05-15T00:03:47.832Z,15.40
2018-05-15T00:04:21.357Z,21.53
2018-05-15T00:04:54.839Z,16.60
2018-05-15T00:05:28.390Z,19.07
2018-05-15T00:06:01.879Z,20.80
2018-05-15T00:06:36.257Z,19.40
2018-05-15T00:07:09.740Z,24.37
2018-05-15T00:07:42.898Z,19.23
2018-05-15T00:08:16.506Z,21.70
2018-05-15T00:08:49.992Z,30.80
2018-05-15T00:09:23.474Z,23.53
2018-05-15T00:09:56.972Z,21.20
2018-05-15T00:10:30.459Z,22.70
2018-05-15T00:11:03.954Z,21.10
2018-05-15T00:11:37.432Z,18.97
2018-05-15T00:12:10.924Z,23.80
2018-05-15T00:12:44.442Z,19.23
2018-05-15T00:13:17.964Z,15.57
2018-05-15T00:13:51.458Z,17.30
2018-05-15T00:14:25.062Z,23.77
2018-05-15T00:14:58.534Z,22.53
2018-05-15T00:15:32.029Z,29.37
2018-05-15T00:16:05.548Z,17.57
2018-05-15T00:16:39.818Z,21.17
2018-05-15T00:17:13.298Z,19.37
2018-05-15T00:17:46.778Z,21.13
2018-05-15T00:18:20.326Z,26.23
2018-05-15T00:18:53.818Z,23.47
2018-05-15T00:19:27.302Z,20.60
2018-05-15T00:20:00.806Z,21.40
2018-05-15T00:20:33.964Z,17.67
2018-05-15T00:21:07.445Z,21.43
2018-05-15T00:21:40.922Z,16.97
2018-05-15T00:22:14.422Z,21.57
2018-05-15T00:22:47.902Z,16.77
2018-05-15T00:23:21.498Z,18.13
2018-05-15T00:23:55.353Z,18.40
2018-05-15T00:24:28.830Z,19.50
2018-05-15T00:25:02.406Z,28.67
2018-05-15T00:25:35.951Z,22.60
2018-05-15T00:26:09.587Z,25.17
2018-05-15T00:26:43.066Z,22.60
2018-05-15T00:27:18.060Z,18.60
2018-05-15T00:27:51.540Z,20.67
2018-05-15T00:28:25.052Z,16.30
2018-05-15T00:28:58.530Z,23.10
2018-05-15T00:29:32.016Z,18.33
2018-05-15T00:30:05.197Z,26.33
2018-05-15T00:30:38.679Z,18.53
2018-05-15T00:31:11.822Z,19.00
2018-05-15T00:31:45.299Z,18.30
2018-05-15T00:32:18.907Z,20.10
2018-05-15T00:32:52.516Z,29.67
2018-05-15T00:33:26.034Z,21.63
2018-05-15T00:34:00.266Z,20.60
2018-05-15T00:34:33.756Z,21.23
2018-05-15T00:35:07.374Z,18.53
2018-05-15T00:35:40.868Z,20.27
2018-05-15T00:36:14.332Z,22.23
2018-05-15T00:36:47.797Z,25.87
2018-05-15T00:37:21.286Z,21.23
2018-05-15T00:37:54.750Z,21.90
2018-05-15T00:38:29.015Z,21.47
2018-05-15T00:39:02.936Z,17.43
2018-05-15T00:39:37.240Z,17.77
2018-05-15T00:40:11.491Z,18.20
2018-05-15T00:40:45.017Z,21.20
2018-05-15T00:41:18.528Z,21.07
2018-05-15T00:41:52.048Z,18.37
2018-05-15T00:42:25.562Z,20.03
2018-05-15T00:42:59.820Z,20.13
2018-05-15T00:43:34.554Z,24.80
2018-05-15T00:44:08.137Z,21.10
2018-05-15T00:44:41.746Z,21.07
2018-05-15T00:45:15.317Z,23.63
2018-05-15T00:45:48.908Z,29.23
2018-05-15T00:46:22.404Z,21.93
2018-05-15T00:46:57.204Z,25.30
2018-05-15T00:47:30.808Z,21.93
2018-05-15T00:48:04.294Z,23.57
2018-05-15T00:48:37.837Z,22.73
2018-05-15T00:49:11.342Z,19.27
2018-05-15T00:49:44.826Z,22.20
2018-05-15T00:50:18.419Z,21.33
2018-05-15T00:50:51.891Z,20.93
2018-05-15T00:51:25.373Z,19.03
2018-05-15T00:51:58.861Z,20.87
2018-05-15T00:52:32.359Z,16.60
2018-05-15T00:53:05.864Z,25.20
2018-05-15T00:53:39.374Z,18.53
2018-05-15T00:54:13.697Z,22.83
2018-05-15T00:54:47.215Z,22.00
2018-05-15T00:55:31.851Z,19.17
2018-05-15T00:56:05.346Z,22.00
2018-05-15T00:56:38.927Z,19.90
2018-05-15T00:57:12.422Z,21.53
2018-05-15T00:57:45.913Z,23.77
2018-05-15T00:58:19.419Z,17.60
2018-05-15T00:58:53.018Z,18.50
2018-05-15T00:59:27.408Z,21.57
2018-05-15T01:00:01.418Z,23.40
2018-05-15T01:00:34.955Z,23.93
2018-05-15T01:01:09.074Z,18.70
2018-05-15T01:01:42.573Z,20.03
2018-05-15T01:02:16.059Z,18.60
2018-05-15T01:02:49.532Z,22.20
2018-05-15T01:03:23.062Z,22.50
2018-05-15T01:03:56.606Z,18.57
2018-05-15T01:04:30.117Z,25.90
2018-05-15T01:05:03.702Z,20.27
2018-05-15T01:05:37.166Z,28.87
2018-05-15T01:06:10.675Z,28.80
2018-05-15T01:06:44.946Z,17.73
2018-05-15T01:07:18.488Z,22.80
2018-05-15T01:07:52.022Z,23.70
2018-05-15T01:08:25.260Z,22.67
2018-05-15T01:09:00.826Z,18.20
2018-05-15T01:09:34.368Z,16.57
2018-05-15T01:10:08.041Z,20.43
2018-05-15T01:10:41.521Z,21.23
2018-05-15T01:11:15.014Z,23.07
2018-05-15T01:11:48.557Z,21.60
2018-05-15T01:12:21.711Z,18.83
2018-05-15T01:12:55.201Z,21.93
2018-05-15T01:13:28.703Z,22.70
2018-05-15T01:14:02.232Z,22.00
2018-05-15T01:14:35.711Z,31.27
2018-05-15T01:15:09.200Z,28.97
2018-05-15T01:15:42.680Z,20.27
2018-05-15T01:16:16.208Z,20.47
2018-05-15T01:16:49.817Z,19.93
2018-05-15T01:17:23.407Z,18.53
2018-05-15T01:17:56.950Z,24.70
2018-05-15T01:18:31.202Z,23.03
2018-05-15T01:19:04.718Z,29.23
2018-05-15T01:19:38.199Z,26.93
2018-05-15T01:20:11.816Z,23.27
2018-05-15T01:20:46.071Z,21.87
2018-05-15T01:21:19.546Z,19.90
2018-05-15T01:21:53.060Z,29.57
2018-05-15T01:22:26.566Z,23.70
2018-05-15T01:23:00.037Z,19.67
2018-05-15T01:23:33.648Z,24.03
2018-05-15T01:24:07.178Z,19.60
2018-05-15T01:24:40.677Z,23.27
2018-05-15T01:25:14.154Z,21.47
2018-05-15T01:25:47.662Z,22.20
2018-05-15T01:26:21.148Z,27.93
2018-05-15T01:26:54.634Z,22.77
2018-05-15T01:27:28.909Z,20.63
2018-05-15T01:28:02.392Z,20.47
2018-05-15T01:28:35.872Z,18.83
2018-05-15T01:29:09.414Z,37.47
2018-05-15T01:29:43.733Z,20.43
2018-05-15T01:30:17.225Z,28.70
2018-05-15T01:30:50.719Z,19.87
2018-05-15T01:31:24.224Z,22.03
2018-05-15T01:31:57.746Z,26.30
2018-05-15T01:32:31.249Z,24.70
2018-05-15T01:33:05.498Z,26.07
2018-05-15T01:33:38.983Z,22.73
2018-05-15T01:34:12.497Z,22.87
2018-05-15T01:34:46.003Z,28.63
2018-05-15T01:35:19.469Z,31.50
2018-05-15T01:35:52.941Z,31.10
2018-05-15T01:36:26.419Z,22.80
2018-05-15T01:36:59.911Z,33.70
2018-05-15T01:37:33.407Z,20.60
2018-05-15T01:38:06.893Z,29.37
2018-05-15T01:38:40.378Z,27.33
2018-05-15T01:39:13.969Z,24.30
2018-05-15T01:39:47.491Z,24.87
2018-05-15T01:40:20.972Z,26.40
2018-05-15T01:40:55.219Z,25.53
2018-05-15T01:41:28.698Z,22.60
2018-05-15T01:42:02.215Z,38.33
2018-05-15T01:42:35.695Z,21.30
2018-05-15T01:43:09.181Z,35.43
2018-05-15T01:43:42.663Z,25.33
2018-05-15T01:44:16.217Z,18.27
2018-05-15T01:44:49.709Z,27.27
2018-05-15T01:45:23.219Z,23.30
2018-05-15T01:45:56.705Z,23.97
2018-05-15T01:46:30.199Z,32.00
2018-05-15T01:47:03.417Z,27.27
2018-05-15T01:47:36.929Z,21.73
2018-05-15T01:48:10.439Z,27.53
2018-05-15T01:48:43.932Z,28.50
2018-05-15T01:49:17.467Z,23.93
2018-05-15T01:49:51.044Z,22.43
2018-05-15T01:50:24.559Z,22.53
2018-05-15T01:50:58.051Z,26.57
2018-05-15T01:51:31.555Z,28.43
2018-05-15T02:33:52.553Z,33.00
2018-05-15T02:34:26.311Z,31.42
2018-05-15T02:35:00.060Z,29.30
2018-05-15T02:35:33.811Z,32.75
2018-05-15T02:36:07.273Z,31.50
2018-05-15T02:36:40.441Z,28.03
2018-05-15T02:37:14.179Z,30.90
2018-05-15T02:37:48.435Z,28.83
2018-05-15T02:38:21.914Z,27.87
2018-05-15T02:38:55.435Z,27.27
2018-05-15T02:39:28.903Z,30.80
2018-05-15T02:40:02.418Z,29.43
2018-05-15T02:40:36.673Z,28.33
2018-05-15T02:41:11.201Z,28.40
2018-05-15T02:41:44.687Z,33.90
2018-05-15T02:42:18.155Z,31.47
2018-05-15T02:42:51.637Z,29.10
2018-05-15T02:43:26.152Z,32.20
2018-05-15T02:43:59.671Z,28.13
2018-05-15T02:44:33.166Z,29.17
2018-05-15T02:45:07.422Z,34.63
2018-05-15T02:45:40.928Z,32.00
2018-05-15T02:46:14.083Z,30.60
2018-05-15T02:46:47.565Z,27.43
2018-05-15T02:47:21.067Z,40.27
2018-05-15T02:47:54.554Z,28.43
2018-05-15T02:48:28.071Z,28.37
2018-05-15T02:49:02.366Z,30.97
2018-05-15T02:49:36.629Z,28.43
2018-05-15T02:50:10.113Z,25.17
2018-05-15T02:50:43.604Z,26.30
2018-05-15T02:51:17.091Z,30.67
2018-05-15T02:51:50.571Z,24.00
2018-05-15T02:52:24.058Z,26.87
2018-05-15T02:52:57.542Z,27.40
2018-05-15T02:53:31.035Z,26.83
2018-05-15T02:54:04.527Z,27.33
2018-05-15T02:54:38.005Z,26.20
2018-05-15T02:55:11.477Z,34.63
2018-05-15T02:55:44.969Z,26.83
2018-05-15T02:56:18.453Z,26.53
2018-05-15T02:56:52.149Z,24.20
2018-05-15T02:57:25.291Z,30.27
2018-05-15T02:57:59.568Z,24.97
2018-05-15T02:58:33.064Z,24.13
2018-05-15T02:59:07.374Z,29.73
2018-05-15T02:59:41.623Z,34.00
2018-05-15T03:00:15.097Z,24.77
2018-05-15T03:00:48.581Z,31.57
2018-05-15T03:01:22.076Z,33.67
2018-05-15T03:01:55.562Z,28.37
2018-05-15T03:02:29.031Z,28.80
2018-05-15T03:03:02.526Z,24.17
2018-05-15T03:03:36.013Z,26.47
2018-05-15T03:04:09.517Z,27.10
2018-05-15T03:04:42.995Z,26.87
2018-05-15T03:05:16.493Z,32.20
2018-05-15T03:05:49.983Z,25.23
2018-05-15T03:06:23.483Z,27.03
2018-05-15T03:06:57.737Z,30.20
2018-05-15T03:07:31.221Z,30.10
2018-05-15T03:08:04.713Z,25.63
2018-05-15T03:08:38.245Z,30.63
2018-05-15T03:09:12.513Z,24.70
2018-05-15T03:09:45.997Z,25.67
2018-05-15T03:10:19.513Z,25.10
2018-05-15T03:10:53.795Z,26.57
2018-05-15T03:11:26.960Z,22.97
2018-05-15T03:12:00.437Z,24.70
2018-05-15T03:12:33.928Z,33.43
2018-05-15T03:13:07.409Z,25.40
2018-05-15T03:13:41.105Z,25.50
2018-05-15T03:14:14.625Z,28.40
2018-05-15T03:14:48.140Z,34.87
2018-05-15T03:15:21.619Z,26.63
2018-05-15T03:15:55.867Z,23.60
2018-05-15T03:16:29.349Z,25.67
2018-05-15T03:17:02.837Z,32.50
2018-05-15T03:17:36.297Z,25.97
2018-05-15T03:18:09.441Z,27.17
2018-05-15T03:18:43.677Z,23.77
2018-05-15T03:19:17.167Z,25.57
2018-05-15T03:19:50.649Z,34.00
2018-05-15T03:20:24.133Z,23.40
2018-05-15T03:20:57.617Z,24.50
2018-05-15T03:21:31.110Z,21.57
2018-05-15T03:22:04.259Z,22.70
2018-05-15T03:22:38.501Z,30.50
2018-05-15T03:23:11.987Z,26.80
2018-05-15T03:23:45.471Z,21.27
2018-05-15T03:24:18.983Z,25.07
2018-05-15T03:24:53.266Z,25.33
2018-05-15T03:25:26.782Z,26.33
2018-05-15T03:25:59.981Z,25.77
2018-05-15T03:26:34.230Z,24.37
2018-05-15T03:27:07.713Z,24.67
2018-05-15T03:27:41.405Z,21.13
2018-05-15T03:28:14.895Z,26.47
2018-05-15T03:28:48.375Z,23.10
2018-05-15T03:29:21.884Z,25.97
2018-05-15T03:29:55.347Z,20.90
2018-05-15T03:30:29.007Z,25.03
2018-05-15T03:31:02.475Z,25.53
2018-05-15T03:31:36.733Z,23.77
2018-05-15T03:32:10.209Z,24.03
2018-05-15T03:32:43.695Z,22.60
2018-05-15T03:33:16.843Z,20.93
2018-05-15T03:33:50.337Z,28.80
2018-05-15T03:34:23.830Z,24.90
2018-05-15T03:34:57.334Z,26.17
2018-05-15T03:35:30.813Z,21.57
2018-05-15T03:36:03.941Z,26.07
2018-05-15T03:36:38.207Z,26.33
2018-05-15T03:37:11.665Z,25.33
2018-05-15T03:37:45.135Z,19.43
2018-05-15T03:38:18.617Z,25.37
2018-05-15T03:38:51.747Z,24.00
2018-05-15T03:39:25.276Z,21.97
2018-05-15T03:39:58.747Z,17.37
2018-05-15T03:40:32.996Z,18.60
2018-05-15T03:41:06.123Z,22.53
2018-05-15T03:41:40.376Z,22.70
2018-05-15T03:42:13.859Z,20.43
2018-05-15T03:42:47.334Z,21.83
2018-05-15T03:43:20.829Z,25.00
2018-05-15T03:43:54.300Z,25.40
2018-05-15T03:44:27.795Z,18.73
2018-05-15T03:45:01.259Z,20.37
2018-05-15T03:45:35.683Z,18.73
2018-05-15T03:46:09.166Z,16.83
2018-05-15T03:46:42.668Z,19.03
2018-05-15T03:47:16.153Z,20.47
2018-05-15T03:47:49.624Z,18.63
2018-05-15T03:48:23.107Z,21.00
2018-05-15T03:48:56.783Z,18.87
2018-05-15T03:49:30.282Z,17.43
2018-05-15T03:50:03.427Z,25.73
2018-05-15T03:50:37.741Z,17.73
2018-05-15T03:51:11.318Z,18.97
2018-05-15T03:51:45.565Z,20.13
2018-05-15T03:52:19.045Z,22.00
2018-05-15T03:52:52.569Z,18.13
2018-05-15T03:53:26.075Z,21.63
2018-05-15T03:54:00.337Z,20.60
2018-05-15T03:54:33.644Z,25.87
2018-05-15T03:55:07.129Z,27.50
2018-05-15T03:55:40.613Z,16.70
2018-05-15T03:56:14.879Z,16.90
2018-05-15T03:56:48.361Z,23.93
2018-05-15T03:57:21.607Z,18.90
2018-05-15T03:57:55.892Z,26.13
2018-05-15T03:58:30.139Z,15.70
2018-05-15T03:59:03.603Z,20.87
2018-05-15T03:59:37.154Z,18.30
2018-05-15T04:00:21.750Z,19.30
2018-05-15T04:01:06.377Z,23.63
2018-05-15T04:01:51.640Z,17.10
2018-05-15T04:02:36.290Z,16.37
2018-05-15T04:03:20.956Z,24.00
2018-05-15T04:04:05.714Z,13.10
2018-05-15T04:04:50.332Z,19.90
2018-05-15T04:05:34.959Z,15.20
2018-05-15T04:06:20.011Z,21.70
2018-05-15T04:07:04.493Z,15.10
2018-05-15T04:08:04.021Z,16.60
2018-05-15T04:08:37.608Z,20.03
2018-05-15T04:09:11.222Z,16.03
2018-05-15T04:09:45.287Z,15.60
2018-05-15T04:10:18.780Z,17.20
2018-05-15T04:10:52.273Z,17.33
2018-05-15T04:11:25.960Z,14.10
2018-05-15T04:11:59.459Z,18.70
2018-05-15T04:12:32.920Z,14.13
2018-05-15T04:13:06.393Z,16.37
2018-05-15T04:13:39.885Z,16.50
2018-05-15T04:14:13.347Z,16.00
2018-05-15T04:14:46.851Z,17.77
2018-05-15T04:15:20.315Z,17.50
2018-05-15T04:15:53.807Z,14.20
2018-05-15T04:16:27.269Z,12.53
2018-05-15T04:17:00.757Z,16.40
2018-05-15T04:17:34.240Z,19.37
2018-05-15T04:18:08.487Z,23.20
2018-05-15T04:18:41.939Z,16.33
2018-05-15T04:19:15.439Z,17.67
2018-05-15T04:19:48.983Z,12.87
2018-05-15T04:20:23.279Z,12.27
2018-05-15T04:20:57.547Z,17.80
2018-05-15T04:21:31.082Z,12.33
2018-05-15T04:22:04.773Z,20.73
2018-05-15T04:22:39.025Z,12.13
2018-05-15T04:23:12.545Z,18.17
2018-05-15T04:23:46.040Z,14.90
2018-05-15T04:24:20.347Z,15.10
2018-05-15T04:24:54.617Z,15.30
2018-05-15T04:25:28.101Z,13.13
2018-05-15T04:26:01.607Z,12.50
2018-05-15T04:26:35.109Z,11.90
2018-05-15T04:27:09.373Z,16.53
2018-05-15T04:27:42.858Z,22.10
2018-05-15T04:28:16.487Z,18.70
2018-05-15T04:28:50.833Z,13.23
2018-05-15T04:29:24.299Z,20.97
2018-05-15T04:29:57.810Z,18.63
2018-05-15T04:30:31.334Z,12.57
2018-05-15T04:31:04.826Z,14.70
2018-05-15T04:31:39.067Z,16.17
2018-05-15T04:32:12.543Z,18.60
2018-05-15T04:32:46.012Z,15.93
2018-05-15T04:33:20.265Z,17.73
2018-05-15T04:33:53.736Z,15.93
2018-05-15T04:34:26.553Z,15.43
2018-05-15T04:34:59.778Z,19.97
2018-05-15T04:35:33.389Z,12.70
2018-05-15T04:36:06.869Z,13.80
2018-05-15T04:36:40.354Z,19.40
2018-05-15T04:37:13.842Z,17.57
2018-05-15T04:37:47.339Z,15.47
2018-05-15T04:38:20.831Z,18.17
2018-05-15T04:38:54.293Z,19.77
2018-05-15T04:39:27.764Z,13.20
2018-05-15T04:40:01.270Z,15.10
2018-05-15T04:40:34.752Z,16.10
2018-05-15T04:41:08.233Z,16.13
2018-05-15T04:41:41.720Z,15.70
2018-05-15T04:42:15.182Z,14.80
2018-05-15T04:42:48.654Z,13.50
2018-05-15T04:43:22.158Z,14.70
2018-05-15T04:43:55.900Z,16.80
2018-05-15T04:44:30.264Z,18.00
2018-05-15T04:45:03.778Z,12.63
2018-05-15T04:45:37.297Z,17.63
2018-05-15T04:46:11.552Z,13.80
2018-05-15T04:46:45.030Z,15.57
2018-05-15T04:47:18.535Z,23.40
2018-05-15T04:47:52.036Z,17.60
2018-05-15T04:48:26.312Z,13.43
2018-05-15T04:48:59.795Z,13.67
2018-05-15T04:49:33.310Z,14.50
2018-05-15T04:50:07.615Z,15.10
2018-05-15T04:50:41.881Z,20.87
2018-05-15T04:51:15.012Z,18.90
2018-05-15T04:51:49.262Z,19.47
2018-05-15T04:52:22.750Z,12.80
2018-05-15T04:52:56.235Z,17.73
2018-05-15T04:53:29.695Z,15.83
2018-05-15T04:54:03.282Z,19.43
2018-05-15T04:54:36.785Z,13.73
2018-05-15T04:55:10.278Z,15.47
2018-05-15T04:55:43.748Z,15.53
2018-05-15T04:56:17.428Z,20.93
2018-05-15T04:56:50.886Z,23.33
2018-05-15T04:57:25.114Z,16.00
2018-05-15T04:57:58.582Z,23.27
2018-05-15T04:58:32.044Z,16.47
2018-05-15T04:59:06.269Z,16.10
2018-05-15T04:59:39.724Z,20.73
2018-05-15T05:00:13.994Z,12.80
2018-05-15T05:00:47.264Z,17.10
2018-05-15T05:01:21.538Z,18.30
2018-05-15T05:01:55.809Z,14.87
2018-05-15T05:02:29.475Z,16.80
2018-05-15T05:03:02.954Z,12.37
2018-05-15T05:03:36.448Z,11.40
2018-05-15T05:04:09.959Z,14.00
2018-05-15T05:04:43.592Z,14.60
2018-05-15T05:05:17.135Z,15.47
2018-05-15T05:05:50.734Z,13.90
2018-05-15T05:06:26.644Z,15.83
2018-05-15T05:07:00.117Z,13.00
2018-05-15T05:07:33.609Z,14.53
2018-05-15T05:08:07.124Z,16.80
2018-05-15T05:08:41.393Z,16.70
2018-05-15T05:09:14.886Z,13.60
2018-05-15T05:09:48.366Z,18.67
2018-05-15T05:10:21.890Z,12.80
2018-05-15T05:10:56.132Z,16.53
2018-05-15T05:11:29.624Z,11.83
2018-05-15T05:12:03.158Z,10.70
2018-05-15T05:12:38.044Z,33.00
2018-05-15T05:13:11.512Z,14.33
2018-05-15T05:13:45.066Z,13.73
2018-05-15T05:14:18.742Z,11.27
2018-05-15T05:14:52.983Z,12.73
2018-05-15T05:15:26.520Z,13.17
2018-05-15T05:15:59.672Z,13.47
2018-05-15T05:16:33.184Z,14.67
2018-05-15T05:17:07.460Z,11.57
2018-05-15T05:17:40.994Z,19.50
2018-05-15T05:18:15.254Z,20.37
2018-05-15T05:18:48.764Z,9.37
2018-05-15T05:19:23.042Z,18.13
2018-05-15T05:19:56.479Z,15.60
2018-05-15T05:20:30.040Z,18.40
2018-05-15T05:21:03.678Z,14.73
2018-05-15T05:21:37.260Z,15.63
2018-05-15T05:22:10.813Z,15.83
2018-05-15T05:22:44.770Z,18.03
2018-05-15T05:23:18.282Z,19.67
2018-05-15T05:23:51.768Z,12.30
2018-05-15T05:24:26.020Z,14.33
2018-05-15T05:24:59.494Z,12.00
2018-05-15T05:25:33.032Z,17.53
2018-05-15T05:26:06.168Z,13.00
2018-05-15T05:26:39.304Z,16.90
2018-05-15T05:27:13.622Z,13.93
2018-05-15T05:27:47.095Z,13.87
2018-05-15T05:28:21.376Z,14.93
2018-05-15T05:28:54.864Z,12.57
2018-05-15T05:29:28.906Z,16.73
2018-05-15T05:30:02.462Z,14.03
2018-05-15T05:30:36.732Z,16.57
2018-05-15T05:31:10.235Z,16.93
2018-05-15T05:31:43.719Z,12.23
2018-05-15T05:32:17.206Z,12.33
2018-05-15T05:32:50.790Z,12.50
2018-05-15T05:33:23.984Z,16.43
2018-05-15T05:33:58.431Z,14.60
2018-05-15T05:34:31.964Z,15.97
2018-05-15T05:35:05.140Z,14.70
2018-05-15T05:35:38.655Z,15.13
2018-05-15T05:36:12.894Z,14.03
2018-05-15T05:36:46.416Z,15.63
2018-05-15T05:37:19.902Z,14.07
2018-05-15T05:37:53.406Z,10.93
2018-05-15T05:38:27.634Z,15.43
2018-05-15T05:39:01.095Z,12.13
2018-05-15T05:39:35.342Z,12.93
2018-05-15T05:40:08.908Z,12.60
2018-05-15T05:40:42.574Z,11.70
2018-05-15T05:41:16.846Z,18.23
2018-05-15T05:41:50.334Z,9.60
2018-05-15T05:42:24.328Z,15.07
2018-05-15T05:42:57.812Z,11.93
2018-05-15T05:43:31.300Z,15.53
2018-05-15T05:44:04.474Z,16.77
2018-05-15T05:44:37.965Z,17.20
2018-05-15T05:45:11.444Z,12.67
2018-05-15T05:45:44.964Z,19.17
2018-05-15T05:46:19.230Z,17.57
2018-05-15T05:46:52.542Z,15.07
2018-05-15T05:47:26.997Z,14.87
2018-05-15T05:48:00.478Z,17.03
2018-05-15T05:48:33.944Z,12.00
2018-05-15T05:49:07.456Z,14.27
2018-05-15T05:49:40.940Z,15.83
2018-05-15T05:50:14.446Z,13.20
2018-05-15T05:50:47.950Z,12.53
2018-05-15T05:51:21.414Z,15.57
2018-05-15T05:51:54.897Z,13.03
2018-05-15T05:52:28.369Z,14.53
2018-05-15T05:53:01.858Z,8.43
2018-05-15T05:53:35.334Z,9.17
2018-05-15T05:54:08.830Z,10.00
2018-05-15T05:54:42.335Z,7.50
2018-05-15T05:55:15.818Z,11.57
2018-05-15T05:55:49.303Z,14.60
2018-05-15T05:56:22.762Z,13.23
2018-05-15T05:56:56.214Z,9.83
2018-05-15T05:57:30.476Z,11.80
2018-05-15T05:58:03.606Z,15.53
2018-05-15T05:58:37.104Z,15.47
2018-05-15T05:59:10.563Z,18.03
2018-05-15T05:59:44.490Z,11.67
2018-05-15T06:00:17.950Z,20.60
2018-05-15T06:00:51.446Z,13.53
2018-05-15T06:01:24.692Z,9.00
2018-05-15T06:01:58.936Z,11.50
2018-05-15T06:02:32.404Z,11.40
2018-05-15T06:03:05.864Z,9.27
2018-05-15T06:03:39.354Z,16.00
2018-05-15T06:04:13.598Z,10.37
2018-05-15T06:04:47.067Z,13.87
2018-05-15T06:05:20.212Z,14.10
2018-05-15T06:05:54.488Z,12.93
2018-05-15T06:06:27.968Z,11.80
2018-05-15T06:07:01.426Z,9.50
2018-05-15T06:07:34.891Z,9.43
2018-05-15T06:08:08.354Z,14.40
2018-05-15T06:08:42.590Z,11.20
2018-05-15T06:09:16.073Z,13.33
2018-05-15T06:09:49.324Z,13.93
2018-05-15T06:10:23.598Z,13.30
2018-05-15T06:10:57.078Z,11.40
2018-05-15T06:11:30.570Z,16.10
2018-05-15T06:12:03.372Z,12.83
2018-05-15T06:12:37.642Z,12.13
2018-05-15T06:13:11.122Z,15.10
2018-05-15T06:13:44.603Z,16.03
2018-05-15T06:14:18.163Z,16.40
2018-05-15T06:14:51.784Z,14.77
2018-05-15T06:15:25.480Z,9.87
2018-05-15T06:15:58.992Z,16.13
2018-05-15T06:16:33.218Z,11.93
2018-05-15T06:17:06.699Z,14.47
2018-05-15T06:17:40.935Z,12.43
2018-05-15T06:18:14.434Z,10.30
2018-05-15T06:18:47.922Z,14.77
2018-05-15T06:19:21.409Z,10.00
2018-05-15T06:19:54.886Z,14.97
2018-05-15T06:20:28.373Z,14.63
2018-05-15T06:21:01.963Z,18.83
2018-05-15T06:21:35.201Z,13.93
2018-05-15T06:22:08.676Z,11.90
2018-05-15T06:22:42.936Z,14.80
2018-05-15T06:23:16.449Z,7.70
2018-05-15T06:23:50.701Z,18.43
2018-05-15T06:24:24.188Z,12.97
2018-05-15T06:24:57.672Z,10.40
2018-05-15T06:25:31.211Z,14.90
2018-05-15T06:26:05.132Z,11.10
2018-05-15T06:26:38.595Z,9.40
2018-05-15T06:27:12.816Z,16.60
2018-05-15T06:27:46.294Z,13.17
2018-05-15T06:28:19.763Z,8.73
2018-05-15T06:28:54.036Z,15.50
2018-05-15T06:29:27.519Z,10.50
2018-05-15T06:30:01.000Z,13.80
2018-05-15T06:30:34.521Z,16.27
2018-05-15T06:31:08.791Z,10.23
2018-05-15T06:31:42.277Z,12.53
2018-05-15T06:32:15.815Z,13.87
2018-05-15T06:32:49.455Z,15.00
2018-05-15T06:33:22.935Z,9.40
2018-05-15T06:33:56.425Z,12.80
2018-05-15T06:34:29.937Z,11.73
2018-05-15T06:35:03.857Z,15.33
2018-05-15T06:35:37.317Z,13.80
2018-05-15T06:36:11.589Z,10.60
2018-05-15T06:36:45.083Z,10.13
2018-05-15T06:37:18.561Z,12.37
2018-05-15T06:37:52.037Z,8.63
2018-05-15T06:38:25.553Z,7.27
2018-05-15T06:38:59.809Z,10.27
2018-05-15T06:39:33.289Z,8.53
2018-05-15T06:40:06.451Z,13.67
2018-05-15T06:40:39.915Z,13.73
2018-05-15T06:41:14.186Z,7.17
2018-05-15T06:41:47.669Z,8.23
2018-05-15T06:42:21.160Z,12.90
2018-05-15T06:42:54.623Z,10.27
2018-05-15T06:43:28.125Z,13.07
2018-05-15T06:44:01.627Z,8.97
2018-05-15T06:44:35.131Z,13.77
2018-05-15T06:45:09.349Z,9.03
2018-05-15T06:45:42.819Z,7.03
2018-05-15T06:46:16.750Z,13.37
2018-05-15T06:46:50.237Z,7.70
2018-05-15T06:47:23.713Z,10.20
2018-05-15T06:47:57.191Z,14.57
2018-05-15T06:48:30.659Z,13.07
2018-05-15T06:49:04.893Z,8.90
2018-05-15T06:49:38.356Z,9.63
2018-05-15T06:50:11.823Z,8.20
2018-05-15T06:50:46.063Z,10.83
2018-05-15T06:51:19.573Z,10.10
2018-05-15T06:51:53.045Z,12.40
2018-05-15T06:52:26.519Z,10.63
2018-05-15T06:53:00.024Z,5.93
2018-05-15T06:53:33.509Z,6.20
2018-05-15T06:54:06.972Z,11.40
2018-05-15T06:54:40.485Z,7.97
2018-05-15T06:55:13.981Z,9.40
2018-05-15T06:55:47.451Z,9.03
2018-05-15T06:56:20.944Z,9.43
2018-05-15T06:56:54.429Z,8.97
2018-05-15T06:57:27.905Z,7.10
2018-05-15T06:58:01.484Z,9.33
2018-05-15T06:58:35.080Z,12.60
2018-05-15T06:59:08.551Z,12.13
2018-05-15T06:59:42.056Z,7.90
2018-05-15T07:00:15.533Z,12.97
2018-05-15T07:00:49.015Z,9.10
2018-05-15T07:01:22.529Z,12.63
2018-05-15T07:01:56.060Z,8.07
2018-05-15T07:02:29.691Z,12.40
2018-05-15T07:03:03.176Z,10.40
2018-05-15T07:03:36.647Z,9.83
2018-05-15T07:04:10.123Z,15.17
2018-05-15T07:04:43.601Z,7.87
2018-05-15T07:05:17.057Z,9.20
2018-05-15T07:05:51.287Z,9.97
2018-05-15T07:06:24.822Z,9.10
2018-05-15T07:06:58.284Z,8.67
2018-05-15T07:07:31.750Z,11.10
2018-05-15T07:08:05.235Z,11.50
2018-05-15T07:08:38.693Z,10.67
2018-05-15T07:09:12.141Z,10.60
2018-05-15T07:09:45.597Z,15.90
2018-05-15T07:10:19.061Z,13.57
2018-05-15T07:10:52.541Z,16.57
2018-05-15T07:11:26.028Z,11.40
2018-05-15T07:11:59.518Z,9.80
2018-05-15T07:12:32.997Z,14.03
2018-05-15T07:13:06.460Z,9.63
2018-05-15T07:13:40.731Z,15.10
2018-05-15T07:14:14.635Z,13.33
2018-05-15T07:14:48.118Z,10.13
2018-05-15T07:15:21.601Z,9.43
2018-05-15T07:15:55.065Z,5.97
2018-05-15T07:16:28.607Z,8.10
2018-05-15T07:17:02.534Z,14.10
2018-05-15T07:17:36.004Z,9.80
2018-05-15T07:18:09.492Z,7.70
2018-05-15T07:18:42.996Z,15.13
2018-05-15T07:19:17.093Z,8.20
2018-05-15T07:19:50.711Z,11.67
2018-05-15T07:20:24.193Z,14.87
2018-05-15T07:20:57.703Z,8.07
2018-05-15T07:21:31.372Z,12.23
2018-05-15T07:22:04.838Z,15.00
2018-05-15T07:22:38.330Z,7.33
2018-05-15T07:23:11.832Z,11.43
2018-05-15T07:23:45.333Z,11.40
2018-05-15T07:24:19.563Z,8.37
2018-05-15T07:24:53.043Z,8.60
2018-05-15T07:25:26.510Z,10.37
2018-05-15T07:26:00.751Z,13.40
2018-05-15T07:26:34.275Z,8.93
2018-05-15T07:27:08.537Z,9.20
2018-05-15T07:27:42.009Z,9.57
2018-05-15T07:28:15.475Z,14.70
2018-05-15T07:28:49.717Z,7.93
2018-05-15T07:29:23.206Z,6.23
2018-05-15T07:29:56.685Z,20.97
2018-05-15T07:30:30.233Z,9.53
2018-05-15T07:31:04.461Z,9.50
2018-05-15T07:31:38.121Z,6.00
2018-05-15T07:32:12.350Z,8.30
2018-05-15T07:32:45.832Z,13.03
2018-05-15T07:33:19.299Z,10.57
2018-05-15T07:33:52.773Z,11.73
2018-05-15T07:34:27.060Z,14.97
2018-05-15T07:35:00.556Z,9.97
2018-05-15T07:35:34.818Z,9.37
2018-05-15T07:36:08.366Z,10.73
2018-05-15T07:36:41.856Z,9.50
2018-05-15T07:37:15.241Z,10.83
2018-05-15T07:37:48.728Z,12.43
2018-05-15T07:38:22.191Z,10.53
2018-05-15T07:38:56.503Z,9.73
2018-05-15T07:39:30.101Z,17.30
2018-05-15T07:40:03.557Z,12.53
2018-05-15T07:40:37.814Z,24.60
2018-05-15T07:41:11.292Z,7.97
2018-05-15T07:41:44.782Z,9.70
2018-05-15T07:42:18.284Z,12.73
2018-05-15T07:42:51.770Z,9.33
2018-05-15T07:43:25.243Z,9.73
2018-05-15T07:43:58.719Z,9.83
2018-05-15T07:44:32.182Z,9.27
2018-05-15T07:45:05.385Z,9.20
2018-05-15T07:45:38.862Z,7.33
2018-05-15T07:46:12.016Z,8.87
2018-05-15T07:46:45.520Z,10.37
2018-05-15T07:47:19.038Z,14.97
2018-05-15T07:47:52.513Z,7.53
2018-05-15T07:48:26.004Z,21.03
2018-05-15T07:48:59.472Z,8.23
2018-05-15T07:49:32.933Z,16.80
2018-05-15T07:50:06.389Z,14.23
2018-05-15T07:50:39.862Z,7.27
2018-05-15T07:51:13.342Z,11.73
2018-05-15T07:51:47.609Z,8.27
2018-05-15T07:52:21.084Z,13.47
2018-05-15T07:52:54.555Z,12.47
2018-05-15T07:53:28.242Z,7.27
2018-05-15T07:54:01.710Z,11.60
2018-05-15T07:54:35.946Z,9.67
2018-05-15T07:55:09.422Z,9.70
2018-05-15T07:55:42.883Z,14.50
2018-05-15T07:56:17.120Z,7.37
2018-05-15T07:56:50.620Z,15.23
2018-05-15T07:57:24.105Z,8.90
2018-05-15T07:57:57.231Z,9.77
2018-05-15T07:58:31.437Z,9.83
2018-05-15T07:59:05.671Z,9.10